createdAt,value
2022-11-28T00:01:22.190Z,7.52
2022-11-28T00:03:48.881Z,7.59
2022-11-28T00:06:15.910Z,7.68
2022-11-28T00:08:42.596Z,8.14
2022-11-28T00:11:11.602Z,8.14
2022-11-28T00:13:38.434Z,7.78
2022-11-28T00:16:07.360Z,7.27
2022-11-28T00:18:34.326Z,7.34
2022-11-28T00:21:02.760Z,7.88
2022-11-28T00:23:30.269Z,7.14
2022-11-28T00:26:01.919Z,7.29
2022-11-28T00:28:28.635Z,7.34
2022-11-28T00:30:55.347Z,7.46
2022-11-28T00:33:22.452Z,7.88
2022-11-28T00:35:49.145Z,7.67
2022-11-28T00:38:15.800Z,7.66
2022-11-28T00:40:42.395Z,7.68
2022-11-28T00:43:08.966Z,8.14
2022-11-28T00:45:35.676Z,7.88
2022-11-28T00:48:02.247Z,7.43
2022-11-28T00:50:28.785Z,7.88
2022-11-28T00:52:55.264Z,7.88
2022-11-28T00:55:21.746Z,7.82
2022-11-28T00:57:48.269Z,7.79
2022-11-28T01:00:15.364Z,7.81
2022-11-28T01:02:41.927Z,7.85
2022-11-28T01:05:09.164Z,7.69
2022-11-28T01:07:35.742Z,7.68
2022-11-28T01:10:02.293Z,7.71
2022-11-28T01:12:28.801Z,7.80
2022-11-28T01:14:57.574Z,7.56
2022-11-28T01:17:24.132Z,7.43
2022-11-28T01:19:50.621Z,7.43
2022-11-28T01:22:17.119Z,7.44
2022-11-28T01:24:43.910Z,7.84
2022-11-28T01:27:10.548Z,7.35
2022-11-28T01:29:37.021Z,7.75
2022-11-28T01:32:03.659Z,7.89
2022-11-28T01:34:30.160Z,7.38
2022-11-28T01:36:56.723Z,7.77
2022-11-28T01:39:23.261Z,7.97
2022-11-28T01:41:49.884Z,7.57
2022-11-28T01:44:16.337Z,7.76
2022-11-28T01:46:43.695Z,7.80
2022-11-28T01:49:25.428Z,7.84
2022-11-28T01:51:59.573Z,7.81
2022-11-28T01:54:27.001Z,7.25
2022-11-28T01:56:58.981Z,7.49
2022-11-28T01:59:28.529Z,7.71
2022-11-28T02:01:55.063Z,7.55
2022-11-28T02:04:22.506Z,7.80
2022-11-28T02:06:49.019Z,7.76
2022-11-28T02:09:16.329Z,7.78
2022-11-28T02:12:07.181Z,7.66
2022-11-28T02:15:18.690Z,7.46
2022-11-28T02:18:09.458Z,7.77
2022-11-28T02:21:05.369Z,7.66
2022-11-28T02:24:18.999Z,8.14
2022-11-28T02:27:22.919Z,7.90
2022-11-28T02:30:17.179Z,7.99
2022-11-28T02:33:14.421Z,7.56
2022-11-28T02:35:59.078Z,7.78
2022-11-28T02:38:57.714Z,7.83
2022-11-28T02:41:52.088Z,7.82
2022-11-28T02:44:23.573Z,7.49
2022-11-28T02:46:59.654Z,8.01
2022-11-28T02:49:47.040Z,7.71
2022-11-28T02:52:18.739Z,7.60
2022-11-28T02:54:47.083Z,7.92
2022-11-28T02:57:13.531Z,7.88
2022-11-28T02:59:42.981Z,7.46
2022-11-28T03:02:24.721Z,7.67
2022-11-28T03:05:08.317Z,7.83
2022-11-28T03:07:43.741Z,7.72
2022-11-28T03:10:22.427Z,7.81
2022-11-28T03:13:06.973Z,7.48
2022-11-28T03:15:59.785Z,7.37
2022-11-28T03:18:34.031Z,7.08
2022-11-28T03:21:06.275Z,7.21
2022-11-28T03:23:52.488Z,7.79
2022-11-28T03:26:29.716Z,7.55
2022-11-28T03:29:26.850Z,6.87
2022-11-28T03:32:17.364Z,7.01
2022-11-28T03:34:47.403Z,7.26
2022-11-28T03:37:22.084Z,7.39
2022-11-28T03:39:53.942Z,7.30
2022-11-28T03:42:28.263Z,7.17
2022-11-28T03:45:08.713Z,7.45
2022-11-28T03:47:40.450Z,7.47
2022-11-28T03:50:13.027Z,7.00
2022-11-28T03:52:43.237Z,7.31
2022-11-28T03:55:17.321Z,7.62
2022-11-28T03:57:51.209Z,7.56
2022-11-28T04:00:17.815Z,7.59
2022-11-28T04:02:49.758Z,7.38
2022-11-28T04:05:27.811Z,7.17
2022-11-28T04:08:00.007Z,7.38
2022-11-28T04:10:26.540Z,7.69
2022-11-28T04:12:56.298Z,7.61
2022-11-28T04:15:56.679Z,6.97
2022-11-28T04:18:45.327Z,7.54
2022-11-28T04:21:26.867Z,7.64
2022-11-28T04:23:56.876Z,7.58
2022-11-28T04:26:29.123Z,7.16
2022-11-28T04:28:58.542Z,7.28
2022-11-28T04:31:26.453Z,7.69
2022-11-28T04:33:58.189Z,7.55
2022-11-28T04:36:26.741Z,7.82
2022-11-28T04:38:57.302Z,7.42
2022-11-28T04:41:34.972Z,7.13
2022-11-28T04:44:14.912Z,7.62
2022-11-28T04:46:48.319Z,7.44
2022-11-28T04:49:14.880Z,7.93
2022-11-28T04:52:00.542Z,7.11
2022-11-28T04:54:43.156Z,7.21
2022-11-28T04:57:13.944Z,6.87
2022-11-28T04:59:42.202Z,7.44
2022-11-28T05:02:10.273Z,7.61
2022-11-28T05:04:37.337Z,7.00
2022-11-28T05:07:05.679Z,7.20
2022-11-28T05:09:32.315Z,7.14
2022-11-28T05:11:58.902Z,7.52
2022-11-28T05:14:25.717Z,7.32
2022-11-28T05:16:52.391Z,7.48
2022-11-28T05:19:19.131Z,7.28
2022-11-28T05:21:45.728Z,7.57
2022-11-28T05:24:12.481Z,7.29
2022-11-28T05:26:39.029Z,7.53
2022-11-28T05:29:06.082Z,7.49
2022-11-28T05:31:32.928Z,7.77
2022-11-28T05:33:59.464Z,7.97
2022-11-28T05:36:25.949Z,7.76
2022-11-28T05:38:52.474Z,7.39
2022-11-28T05:41:23.248Z,7.60
2022-11-28T05:43:50.295Z,7.84
2022-11-28T05:46:17.931Z,7.64
2022-11-28T05:48:44.519Z,7.22
2022-11-28T05:51:11.173Z,7.52
2022-11-28T05:53:37.906Z,7.64
2022-11-28T05:56:16.486Z,7.78
2022-11-28T05:58:43.765Z,7.77
2022-11-28T06:01:17.025Z,7.50
2022-11-28T06:03:44.335Z,7.65
2022-11-28T06:06:20.185Z,7.11
2022-11-28T06:08:48.254Z,7.27
2022-11-28T06:11:16.179Z,7.66
2022-11-28T06:13:43.873Z,7.95
2022-11-28T06:16:12.793Z,8.15
2022-11-28T06:18:40.470Z,7.98
2022-11-28T06:21:09.593Z,7.81
2022-11-28T06:23:44.904Z,8.01
2022-11-28T06:26:14.016Z,7.86
2022-11-28T06:28:41.474Z,7.44
2022-11-28T06:31:19.426Z,7.73
2022-11-28T06:33:46.611Z,7.99
2022-11-28T06:36:15.200Z,7.54
2022-11-28T06:38:41.999Z,7.49
2022-11-28T06:41:11.186Z,7.90
2022-11-28T06:43:38.534Z,7.84
2022-11-28T06:46:05.326Z,7.39
2022-11-28T06:48:32.480Z,7.71
2022-11-28T06:51:06.429Z,7.65
2022-11-28T06:53:34.259Z,7.77
2022-11-28T06:56:13.896Z,7.94
2022-11-28T06:58:41.498Z,6.97
2022-11-28T07:01:12.635Z,7.27
2022-11-28T07:03:40.166Z,7.42
2022-11-28T07:06:07.470Z,7.43
2022-11-28T07:08:34.774Z,7.46
2022-11-28T07:11:14.006Z,7.79
2022-11-28T07:13:41.641Z,7.27
2022-11-28T07:16:12.023Z,7.23
2022-11-28T07:18:38.614Z,7.13
2022-11-28T07:21:05.483Z,7.44
2022-11-28T07:23:32.049Z,7.14
2022-11-28T07:26:00.257Z,7.18
2022-11-28T07:28:28.439Z,7.51
2022-11-28T07:31:00.487Z,7.65
2022-11-28T07:33:27.157Z,7.47
2022-11-28T07:35:53.631Z,7.33
2022-11-28T07:38:20.120Z,7.75
2022-11-28T07:40:46.628Z,7.62
2022-11-28T07:43:13.167Z,8.02
2022-11-28T07:45:59.216Z,8.18
2022-11-28T07:48:26.523Z,8.52
2022-11-28T07:50:53.038Z,7.91
2022-11-28T07:53:19.634Z,8.11
2022-11-28T07:55:46.329Z,8.20
2022-11-28T07:58:12.903Z,7.98
2022-11-28T08:00:39.487Z,8.01
2022-11-28T08:03:06.173Z,7.81
2022-11-28T08:05:33.674Z,7.96
2022-11-28T08:08:00.293Z,8.18
2022-11-28T08:10:26.839Z,8.64
2022-11-28T08:12:53.421Z,8.21
2022-11-28T08:15:20.296Z,8.69
2022-11-28T08:17:46.948Z,7.90
2022-11-28T08:20:13.616Z,8.06
2022-11-28T08:22:40.463Z,8.77
2022-11-28T08:25:07.206Z,8.40
2022-11-28T08:27:33.921Z,7.62
2022-11-28T08:30:00.447Z,8.02
2022-11-28T08:32:30.037Z,8.15
2022-11-28T08:34:56.533Z,8.27
2022-11-28T08:37:23.023Z,8.27
2022-11-28T08:39:49.649Z,8.29
2022-11-28T08:42:16.153Z,8.28
2022-11-28T08:44:42.696Z,8.09
2022-11-28T08:47:09.263Z,8.33
2022-11-28T08:49:39.451Z,8.29
2022-11-28T08:52:06.400Z,7.66
2022-11-28T08:54:33.211Z,8.12
2022-11-28T08:57:01.319Z,8.11
2022-11-28T08:59:28.239Z,7.84
2022-11-28T09:01:55.211Z,8.32
2022-11-28T09:04:26.378Z,8.31
2022-11-28T09:06:53.304Z,7.73
2022-11-28T09:09:19.880Z,7.76
2022-11-28T09:11:46.994Z,7.70
2022-11-28T09:14:13.525Z,8.33
2022-11-28T09:16:40.827Z,8.46
2022-11-28T09:19:09.138Z,8.37
2022-11-28T09:21:36.538Z,8.40
2022-11-28T09:24:03.671Z,8.94
2022-11-28T09:26:30.495Z,8.24
2022-11-28T09:28:57.040Z,8.15
2022-11-28T09:31:23.791Z,8.20
2022-11-28T09:33:50.716Z,8.62
2022-11-28T09:36:20.991Z,8.59
2022-11-28T09:38:47.834Z,8.41
2022-11-28T09:41:41.356Z,8.94
2022-11-28T09:44:22.382Z,8.51
2022-11-28T09:46:53.914Z,8.25
2022-11-28T09:49:58.091Z,8.41
2022-11-28T09:52:24.582Z,8.44
2022-11-28T09:55:05.022Z,8.72
2022-11-28T09:57:40.250Z,9.10
2022-11-28T10:00:17.163Z,9.01
2022-11-28T10:03:06.896Z,9.06
2022-11-28T10:05:45.380Z,9.05
2022-11-28T10:08:46.848Z,9.10
2022-11-28T10:11:31.952Z,9.34
2022-11-28T10:14:23.376Z,8.76
2022-11-28T10:17:21.171Z,8.74
2022-11-28T10:20:01.192Z,9.03
2022-11-28T10:22:37.309Z,9.00
2022-11-28T10:25:19.015Z,9.24
2022-11-28T10:27:46.900Z,9.41
2022-11-28T10:30:36.249Z,10.10
2022-11-28T10:33:24.124Z,9.82
2022-11-28T10:35:59.081Z,9.33
2022-11-28T10:38:27.802Z,9.67
2022-11-28T10:41:16.335Z,9.77
2022-11-28T10:44:02.793Z,10.07
2022-11-28T10:46:53.950Z,10.29
2022-11-28T10:49:47.094Z,10.17
2022-11-28T10:52:32.136Z,10.25
2022-11-28T10:55:08.143Z,10.16
2022-11-28T10:58:13.633Z,10.08
2022-11-28T11:00:42.254Z,10.28
2022-11-28T11:03:13.511Z,10.54
2022-11-28T11:05:40.173Z,10.48
2022-11-28T11:08:24.679Z,10.59
2022-11-28T11:11:01.532Z,10.12
2022-11-28T11:13:31.319Z,10.04
2022-11-28T11:16:00.956Z,10.00
2022-11-28T11:18:31.348Z,9.80
2022-11-28T11:21:10.263Z,9.57
2022-11-28T11:23:38.421Z,9.67
2022-11-28T11:26:10.184Z,10.06
2022-11-28T11:28:42.165Z,10.30
2022-11-28T11:31:32.756Z,10.32
2022-11-28T11:34:13.082Z,10.71
2022-11-28T11:36:39.614Z,10.40
2022-11-28T11:39:15.200Z,10.79
2022-11-28T11:41:47.804Z,11.14
2022-11-28T11:44:14.273Z,10.94
2022-11-28T11:47:06.006Z,10.88
2022-11-28T11:49:45.083Z,11.12
2022-11-28T11:52:12.797Z,10.84
2022-11-28T11:55:03.214Z,10.34
2022-11-28T11:57:37.890Z,10.76
2022-11-28T12:00:15.118Z,10.22
2022-11-28T12:02:58.339Z,10.76
2022-11-28T12:05:41.817Z,10.46
2022-11-28T12:08:37.989Z,10.92
2022-11-28T12:11:15.419Z,11.09
2022-11-28T12:13:42.623Z,11.06
2022-11-28T12:16:28.570Z,10.78
2022-11-28T12:19:41.407Z,10.04
2022-11-28T12:22:16.939Z,9.94
2022-11-28T12:25:22.482Z,10.27
2022-11-28T12:28:12.351Z,10.70
2022-11-28T12:31:06.946Z,10.16
2022-11-28T12:34:00.909Z,9.92
2022-11-28T12:36:37.245Z,9.98
2022-11-28T12:39:22.487Z,10.27
2022-11-28T12:42:13.827Z,10.19
2022-11-28T12:45:04.853Z,10.33
2022-11-28T12:48:14.637Z,10.54
2022-11-28T12:50:49.616Z,9.71
2022-11-28T12:53:43.155Z,9.83
2022-11-28T12:56:40.072Z,9.73
2022-11-28T12:59:34.868Z,9.87
2022-11-28T13:02:27.632Z,9.59
2022-11-28T13:05:53.250Z,9.62
2022-11-28T13:08:48.804Z,9.46
2022-11-28T13:12:00.332Z,8.87
2022-11-28T13:14:38.025Z,9.55
2022-11-28T13:17:25.750Z,9.48
2022-11-28T13:20:03.333Z,9.57
2022-11-28T13:22:36.910Z,9.28
2022-11-28T13:25:38.296Z,9.73
2022-11-28T13:28:14.233Z,9.16
2022-11-28T13:30:59.339Z,9.99
2022-11-28T13:33:28.904Z,9.84
2022-11-28T13:35:58.513Z,10.18
2022-11-28T13:39:11.190Z,10.02
2022-11-28T13:44:42.499Z,9.76
2022-11-28T13:47:14.546Z,10.12
2022-11-28T13:49:41.044Z,9.64
2022-11-28T13:52:32.352Z,9.42
2022-11-28T13:54:58.974Z,9.50
2022-11-28T13:57:36.525Z,9.49
2022-11-28T14:00:19.321Z,10.06
2022-11-28T14:02:53.233Z,10.50
2022-11-28T14:05:28.071Z,10.68
2022-11-28T14:07:56.405Z,10.44
2022-11-28T14:10:39.934Z,9.97
2022-11-28T14:13:34.770Z,9.95
2022-11-28T14:16:04.773Z,10.42
2022-11-28T14:19:10.068Z,10.49
2022-11-28T14:21:57.921Z,9.64
2022-11-28T14:24:47.951Z,10.01
2022-11-28T14:27:23.484Z,10.20
2022-11-28T14:29:54.015Z,10.09
2022-11-28T14:32:42.051Z,9.67
2022-11-28T14:35:52.536Z,9.49
2022-11-28T14:38:31.390Z,9.41
2022-11-28T14:41:06.904Z,9.75
2022-11-28T14:43:46.123Z,9.29
2022-11-28T14:46:15.598Z,9.51
2022-11-28T14:49:02.552Z,9.34
2022-11-28T14:51:49.570Z,9.64
2022-11-28T14:54:31.656Z,9.27
2022-11-28T14:57:00.181Z,9.83
2022-11-28T14:59:34.601Z,9.70
2022-11-28T15:02:10.497Z,9.36
2022-11-28T15:04:40.096Z,9.58
2022-11-28T15:07:32.703Z,9.60
2022-11-28T15:10:15.290Z,9.63
2022-11-28T15:13:12.508Z,9.25
2022-11-28T15:15:48.433Z,9.68
2022-11-28T15:18:17.772Z,9.58
2022-11-28T15:20:51.219Z,9.31
2022-11-28T15:23:31.639Z,9.35
2022-11-28T15:26:00.207Z,9.76
2022-11-28T15:28:28.826Z,9.56
2022-11-28T15:30:57.238Z,9.36
2022-11-28T15:33:25.872Z,9.66
2022-11-28T15:35:55.450Z,9.37
2022-11-28T15:38:22.219Z,9.11
2022-11-28T15:40:51.563Z,9.34
2022-11-28T15:43:18.848Z,9.29
2022-11-28T15:45:54.055Z,9.76
2022-11-28T15:48:47.906Z,9.74
2022-11-28T15:51:29.855Z,9.44
2022-11-28T15:53:56.860Z,9.47
2022-11-28T15:56:23.558Z,9.42
2022-11-28T15:58:51.629Z,9.91
2022-11-28T16:01:22.583Z,9.70
2022-11-28T16:04:27.595Z,9.89
2022-11-28T16:06:56.883Z,9.71
2022-11-28T16:09:35.038Z,9.67
2022-11-28T16:12:04.144Z,9.98
2022-11-28T16:14:38.330Z,9.76
2022-11-28T16:17:14.703Z,9.97
2022-11-28T16:19:44.303Z,9.96
2022-11-28T16:22:16.336Z,9.94
2022-11-28T16:24:48.770Z,9.69
2022-11-28T16:27:35.323Z,9.56
2022-11-28T16:30:43.492Z,9.89
2022-11-28T16:33:41.037Z,9.78
2022-11-28T16:36:31.026Z,9.71
2022-11-28T16:39:23.797Z,9.69
2022-11-28T16:42:05.123Z,9.56
2022-11-28T16:44:33.541Z,10.03
2022-11-28T16:47:00.838Z,9.74
2022-11-28T16:49:39.269Z,9.65
2022-11-28T16:52:24.192Z,9.60
2022-11-28T16:54:55.399Z,9.71
2022-11-28T16:57:22.802Z,9.84
2022-11-28T16:59:53.479Z,9.76
2022-11-28T17:02:23.172Z,9.92
2022-11-28T17:04:51.602Z,9.63
2022-11-28T17:07:20.539Z,9.77
2022-11-28T17:09:48.769Z,9.90
2022-11-28T17:12:28.294Z,9.90
2022-11-28T17:14:55.781Z,9.78
2022-11-28T17:17:23.490Z,9.93
2022-11-28T17:19:50.401Z,9.60
2022-11-28T17:22:20.357Z,9.90
2022-11-28T17:24:48.568Z,9.88
2022-11-28T17:27:15.910Z,9.70
2022-11-28T17:29:42.983Z,9.97
2022-11-28T17:32:13.966Z,10.03
2022-11-28T17:34:42.231Z,9.66
2022-11-28T17:37:09.956Z,9.84
2022-11-28T17:39:36.724Z,9.65
2022-11-28T17:42:04.233Z,9.77
2022-11-28T17:44:36.243Z,9.73
2022-11-28T17:47:03.649Z,9.83
2022-11-28T17:49:30.915Z,9.73
2022-11-28T17:51:57.886Z,9.64
2022-11-28T17:54:26.221Z,9.67
2022-11-28T17:56:54.105Z,9.66
2022-11-28T17:59:23.243Z,9.82
2022-11-28T18:01:50.276Z,9.71
2022-11-28T18:04:16.856Z,9.56
2022-11-28T18:06:45.646Z,9.53
2022-11-28T18:09:13.477Z,9.57
2022-11-28T18:11:46.223Z,9.83
2022-11-28T18:14:13.142Z,9.49
2022-11-28T18:16:40.968Z,9.59
2022-11-28T18:19:07.569Z,9.57
2022-11-28T18:21:34.220Z,9.43
2022-11-28T18:24:00.815Z,9.49
2022-11-28T18:26:27.578Z,9.56
2022-11-28T18:28:54.858Z,9.58
2022-11-28T18:31:26.936Z,9.75
2022-11-28T18:34:01.429Z,9.94
2022-11-28T18:36:29.781Z,9.76
2022-11-28T18:38:58.564Z,9.66
2022-11-28T18:41:25.964Z,9.63
2022-11-28T18:44:00.741Z,9.59
2022-11-28T18:46:29.090Z,9.84
2022-11-28T18:48:55.928Z,9.78
2022-11-28T18:51:25.045Z,9.82
2022-11-28T18:53:52.997Z,9.78
2022-11-28T18:56:19.852Z,9.66
2022-11-28T18:58:48.939Z,10.55
2022-11-28T19:01:18.756Z,10.14
2022-11-28T19:03:55.224Z,10.04
2022-11-28T19:06:22.167Z,9.82
2022-11-28T19:08:52.853Z,9.79
2022-11-28T19:11:19.492Z,9.99
2022-11-28T19:13:47.728Z,9.67
2022-11-28T19:16:18.203Z,9.92
2022-11-28T19:18:45.301Z,9.87
2022-11-28T19:21:14.958Z,9.79
2022-11-28T19:23:41.645Z,9.57
2022-11-28T19:26:10.941Z,9.93
2022-11-28T19:28:39.358Z,9.88
2022-11-28T19:31:14.951Z,10.22
2022-11-28T19:33:43.068Z,10.31
2022-11-28T19:36:12.355Z,10.54
2022-11-28T19:38:39.616Z,10.51
2022-11-28T19:41:14.551Z,9.98
2022-11-28T19:43:41.499Z,9.96
2022-11-28T19:46:09.715Z,9.88
2022-11-28T19:48:37.635Z,10.26
2022-11-28T19:51:04.532Z,10.10
2022-11-28T19:53:32.163Z,10.03
2022-11-28T19:56:03.280Z,10.56
2022-11-28T19:58:31.443Z,10.43
2022-11-28T20:01:06.495Z,10.07
2022-11-28T20:03:34.431Z,10.04
2022-11-28T20:06:01.122Z,10.01
2022-11-28T20:08:28.651Z,9.86
2022-11-28T20:10:55.162Z,9.55
2022-11-28T20:13:21.716Z,10.28
2022-11-28T20:15:48.331Z,10.41
2022-11-28T20:18:14.946Z,9.93
2022-11-28T20:20:41.508Z,9.54
2022-11-28T20:23:08.133Z,9.62
2022-11-28T20:25:34.695Z,10.28
2022-11-28T20:28:01.320Z,10.01
2022-11-28T20:30:28.233Z,9.73
2022-11-28T20:32:55.366Z,9.74
2022-11-28T20:35:24.401Z,9.74
2022-11-28T20:37:51.064Z,9.82
2022-11-28T20:40:17.651Z,9.83
2022-11-28T20:42:44.306Z,9.64
2022-11-28T20:45:11.184Z,9.88
2022-11-28T20:47:37.773Z,9.68
2022-11-28T20:50:06.671Z,9.81
2022-11-28T20:52:33.215Z,9.69
2022-11-28T20:54:59.776Z,9.57
2022-11-28T20:57:27.112Z,9.85
2022-11-28T20:59:56.693Z,10.14
2022-11-28T21:02:23.796Z,9.64
2022-11-28T21:04:50.435Z,9.54
2022-11-28T21:07:18.381Z,9.53
2022-11-28T21:09:45.256Z,9.38
2022-11-28T21:12:14.433Z,9.66
2022-11-28T21:14:43.221Z,9.28
2022-11-28T21:17:10.005Z,9.91
2022-11-28T21:19:36.637Z,9.85
2022-11-28T21:22:03.374Z,9.51
2022-11-28T21:24:30.000Z,9.44
2022-11-28T21:26:56.538Z,9.37
2022-11-28T21:29:24.646Z,9.62
2022-11-28T21:31:52.219Z,9.60
2022-11-28T21:34:19.326Z,9.53
2022-11-28T21:36:46.297Z,9.53
2022-11-28T21:39:15.099Z,9.56
2022-11-28T21:41:41.892Z,9.26
2022-11-28T21:44:08.665Z,9.27
2022-11-28T21:46:35.178Z,9.30
2022-11-28T21:49:01.833Z,9.48
2022-11-28T21:51:28.705Z,9.79
2022-11-28T21:53:57.374Z,9.60
2022-11-28T21:56:24.390Z,9.38
2022-11-28T21:58:51.329Z,9.28
2022-11-28T22:01:18.153Z,9.30
2022-11-28T22:03:44.850Z,9.27
2022-11-28T22:06:14.692Z,9.22
2022-11-28T22:08:41.328Z,9.24
2022-11-28T22:11:13.084Z,9.24
2022-11-28T22:13:42.086Z,9.16
2022-11-28T22:16:11.380Z,9.09
2022-11-28T22:18:38.703Z,9.10
2022-11-28T22:21:28.733Z,9.28
2022-11-28T22:23:53.420Z,9.10
2022-11-28T22:26:20.463Z,9.16
2022-11-28T22:28:53.220Z,9.24
2022-11-28T22:31:20.482Z,9.17
2022-11-28T22:33:49.454Z,9.13
2022-11-28T22:36:20.921Z,9.09
2022-11-28T22:38:53.588Z,9.09
2022-11-28T22:41:28.422Z,9.18
2022-11-28T22:43:57.248Z,9.13
2022-11-28T22:46:23.903Z,9.11
2022-11-28T22:48:51.656Z,9.05
2022-11-28T22:51:21.004Z,9.41
2022-11-28T22:53:47.724Z,9.07
2022-11-28T22:56:15.444Z,9.13
2022-11-28T22:58:44.743Z,9.18
2022-11-28T23:01:14.681Z,9.11
2022-11-28T23:03:41.312Z,9.12
2022-11-28T23:06:11.764Z,9.44
2022-11-28T23:08:38.721Z,9.14
2022-11-28T23:11:09.935Z,9.32
2022-11-28T23:13:38.058Z,9.12
2022-11-28T23:16:16.872Z,9.19
2022-11-28T23:18:45.259Z,9.20
2022-11-28T23:21:13.527Z,8.98
2022-11-28T23:23:40.505Z,9.13
2022-11-28T23:26:09.779Z,9.06
2022-11-28T23:28:42.989Z,9.04
2022-11-28T23:31:23.978Z,9.18
2022-11-28T23:34:00.561Z,9.52
2022-11-28T23:36:30.444Z,9.56
2022-11-28T23:38:59.240Z,9.37
2022-11-28T23:41:27.282Z,9.30
2022-11-28T23:43:54.049Z,9.31
2022-11-28T23:46:21.356Z,9.54
2022-11-28T23:48:48.462Z,9.60
2022-11-28T23:51:18.354Z,9.28
2022-11-28T23:53:45.389Z,9.19
2022-11-28T23:56:17.434Z,9.50
2022-11-28T23:58:44.395Z,9.20
